createdAt,value
2022-11-26T00:14:00.108Z,15.2
2022-11-26T00:29:09.717Z,16.2
2022-11-26T00:44:19.720Z,15.1
2022-11-26T00:59:29.651Z,15.7
2022-11-26T01:14:40.166Z,15.3
2022-11-26T01:29:50.395Z,13.4
2022-11-26T01:44:59.935Z,13.6
2022-11-26T02:00:10.420Z,14.9
2022-11-26T02:15:19.959Z,15.1
2022-11-26T02:30:29.464Z,15.8
2022-11-26T02:45:39.738Z,15.4
2022-11-26T03:00:49.696Z,16.6
2022-11-26T03:15:59.842Z,15.9
2022-11-26T03:31:09.843Z,16.1
2022-11-26T03:46:19.741Z,17.1
2022-11-26T04:01:29.506Z,17.3
2022-11-26T04:16:39.422Z,18.4
2022-11-26T04:31:49.373Z,18.2
2022-11-26T04:46:59.250Z,16.3
2022-11-26T05:02:09.398Z,17
2022-11-26T05:17:18.629Z,15.1
2022-11-26T05:32:28.203Z,14.6
2022-11-26T05:47:37.231Z,14.9
2022-11-26T06:02:46.859Z,14.1
2022-11-26T06:17:56.706Z,13.2
2022-11-26T06:33:07.818Z,12.2
2022-11-26T06:48:17.170Z,17
2022-11-26T07:03:33.542Z,14.4
2022-11-26T07:18:43.240Z,16.1
2022-11-26T07:33:52.345Z,15
2022-11-26T07:49:02.123Z,14.5
2022-11-26T08:04:11.604Z,14.2
2022-11-26T08:19:23.723Z,16.2
2022-11-26T08:34:34.779Z,17
2022-11-26T08:49:44.615Z,18.1
2022-11-26T09:04:54.264Z,22.7
2022-11-26T09:20:04.225Z,20.5
2022-11-26T09:35:14.158Z,19.9
2022-11-26T09:50:23.877Z,23.7
2022-11-26T10:05:33.805Z,20.8
2022-11-26T10:20:43.274Z,20.9
2022-11-26T10:35:53.457Z,20.8
2022-11-26T10:51:03.355Z,19.5
2022-11-26T11:08:34.306Z,27.4
2022-11-26T11:24:09.163Z,22.6
2022-11-26T11:39:19.398Z,22.1
2022-11-26T11:54:28.981Z,21.4
2022-11-26T12:09:38.728Z,22.4
2022-11-26T12:24:48.629Z,23.9
2022-11-26T12:39:58.730Z,19.8
2022-11-26T12:55:10.792Z,19.8
2022-11-26T13:10:20.580Z,18.2
2022-11-26T13:25:30.135Z,18
2022-11-26T13:40:39.457Z,18.5
2022-11-26T13:55:48.948Z,19.2
2022-11-26T14:10:58.200Z,20.1
2022-11-26T14:26:10.758Z,19
2022-11-26T14:41:19.982Z,18.7
2022-11-26T14:56:29.479Z,17.7
2022-11-26T15:11:39.032Z,17
2022-11-26T15:26:48.136Z,29.6
2022-11-26T15:41:57.551Z,32.1
2022-11-26T15:57:09.194Z,22.4
2022-11-26T16:12:18.868Z,24.6
2022-11-26T16:27:29.311Z,23.8
2022-11-26T16:42:39.358Z,24.4
2022-11-26T16:57:48.753Z,24.7
2022-11-26T17:12:58.205Z,21.1
2022-11-26T17:28:07.767Z,19.2
2022-11-26T17:43:17.467Z,18.2
2022-11-26T17:58:26.863Z,16.3
2022-11-26T18:14:25.624Z,18
2022-11-26T18:29:39.330Z,14.3
2022-11-26T18:44:50.358Z,15.6
2022-11-26T18:59:59.877Z,12.5
2022-11-26T19:15:10.598Z,11.5
2022-11-26T19:30:19.845Z,11.2
2022-11-26T19:45:29.193Z,11.1
2022-11-26T20:00:38.671Z,9.2
2022-11-26T20:15:48.255Z,9.7
2022-11-26T20:30:57.718Z,12
2022-11-26T20:46:07.478Z,9.8
2022-11-26T21:01:16.973Z,9.3
2022-11-26T21:16:27.045Z,8.6
2022-11-26T21:31:36.890Z,10.3
2022-11-26T21:46:45.803Z,9.5
2022-11-26T22:01:55.940Z,10
2022-11-26T22:17:05.555Z,9
2022-11-26T22:32:15.253Z,9.2
2022-11-26T22:47:24.359Z,10.8
2022-11-26T23:02:34.033Z,11.9
2022-11-26T23:17:43.942Z,12
2022-11-26T23:32:53.469Z,12.3
2022-11-26T23:48:02.423Z,12.9
